Nearby METAR Reports

 

KPMD - Palmdale, California, USA
Distance from station: NNE 12mi, 19km
Updated: Mon, 21-Oct-2019 1:53pm PDT

 
Barometer: 30.15 inHg , 1021 hPa
2019/10/21 20:53 KPMD 212053Z A3015 RMK AO2 SLPNO 58016 $
KWJF - Lancaster/Fox, California, USA
Distance from station: N 17mi, 27km
Updated: Mon, 21-Oct-2019 1:56pm PDT
Clear
Clear
 Wind from E
Wind: E 6 mph , 9 km/h
Temperature: 81°F , 27°C
Dew Point: 30°F , -1°C
Humidity: 16%
Barometer: 30.15 inHg , 1021 hPa
Clouds: Clear
Visibility: 10 miles , 16 km
2019/10/21 20:56 KWJF 212056Z 10005KT 10SM CLR 27/M01 A3015 RMK AO2 SLP203 T02671006 58015
 
KMWS - Mount Wilson, California, USA
Distance from station: SSE 18mi, 30km
Updated: Wed, 13-May-2015 6:45am PDT
NOT Current

 Wind from S
Wind: S 3 mph , 6 km/h, Gust: 5 mph , 7 km/h
Temperature: 43°F , 6°C
Dew Point: -0°F , -18°C
Humidity: 16%
2015/05/13 13:45 KMWS 131345Z 18003G04KT 06/M18 RMK SNOW DEPTH 1.00
KWHP - La / Whiteman, California, USA
Distance from station: SW 21mi, 34km
Updated: Mon, 21-Oct-2019 1:55pm PDT
Clear
Clear
 Wind from calm
Wind: Calm
Temperature: 88°F , 31°C
Dew Point: 32°F , 0°C
Humidity: 13%
Barometer: 30.03 inHg , 1016.9 hPa
Clouds: Clear
Visibility: 10 miles , 16 km
2019/10/21 20:55 KWHP 212055Z 00000KT 10SM SKC 31/00 A3003
 
KBUR - Burbank, California, USA
Distance from station: SSW 22mi, 35km
Updated: Mon, 21-Oct-2019 1:53pm PDT
Clear
Clear
 Wind from varies
Wind: varies 3 mph , 6 km/h
Temperature: 90°F , 32°C
Dew Point: 32°F , 0°C
Humidity: 13%
Barometer: 29.99 inHg , 1015.6 hPa
Clouds: Clear
Visibility: 10 miles , 16 km
2019/10/21 20:53 KBUR 212053Z VRB03KT 10SM CLR 32/00 A2999 RMK AO2 SLP140 T03220000 58016 $
KVNY - Van Nuys, California, USA
Distance from station: SW 25mi, 40km
Updated: Mon, 21-Oct-2019 1:51pm PDT
Clear
Clear
 Wind from calm
Wind: Calm
Temperature: 91°F , 33°C
Dew Point: 32°F , 0°C
Humidity: 12%
Barometer: 29.99 inHg , 1015.6 hPa
Clouds: Clear
Visibility: 10 miles , 16 km
2019/10/21 20:51 KVNY 212051Z 00000KT 10SM CLR 33/00 A2999 RMK AO2 SLP144 T03330000 58015
 
KEDW - Edwards Afb, California, USA
Distance from station: NNE 33mi, 53km
Updated: Mon, 21-Oct-2019 12:58pm PDT
Few Clouds
Few Clouds
 Wind from calm
Wind: Calm
Temperature: 73°F , 23°C
Dew Point: 34°F , 1°C
Humidity: 23%
Barometer: 30.15 inHg , 1021 hPa
Clouds: Few Clouds
Visibility: 90 miles , 144 km
Cloud details: Few Clouds 25000 ft
2019/10/21 19:58 KEDW 211958Z 00000KT 90SM FEW250 23/01 A3015 RMK AO2A SLP200 T02290007
KSMO - Santa Monica, California, USA
Distance from station: SSW 35mi, 57km
Updated: Mon, 21-Oct-2019 1:51pm PDT
Clear
Clear
 Wind from WSW
Wind: WSW 7 mph , 11 km/h
Temperature: 86°F , 30°C
Dew Point: 39°F , 4°C
Humidity: 19%
Barometer: 29.98 inHg , 1015.2 hPa
Clouds: Clear
Visibility: 10 miles , 16 km
2019/10/21 20:51 KSMO 212051Z 25006KT 10SM CLR 30/04 A2998 RMK AO2 SLP150 T03000044 58011
 
KLAX - Los Angeles, California, USA
Distance from station: SSW 39mi, 63km
Updated: Mon, 21-Oct-2019 1:53pm PDT
Partly cloudy
Partly cloudy
 Wind from W
Wind: W 13 mph , 20 km/h
Temperature: 88°F , 31°C
Dew Point: 43°F , 6°C
Humidity: 21%
Barometer: 29.97 inHg , 1014.9 hPa
Clouds: Partly cloudy
Visibility: 10 miles , 16 km
Cloud details: Partly cloudy 5000 ft
2019/10/21 20:53 KLAX 212053Z 26011KT 10SM SCT050 31/06 A2997 RMK AO2 SLP148 FU SCT050 T03060056 58012 $
KMHV - Mojave, California, USA
Distance from station: N 41mi, 66km
Updated: Mon, 21-Oct-2019 1:40pm PDT
Clear
Clear
 Wind from NE
Wind: NE 7 mph , 11 km/h
Temperature: 77°F , 25°C
Dew Point: 28°F , -2°C
Humidity: 17%
Barometer: 30.17 inHg , 1021.7 hPa
Clouds: Clear
Visibility: 10 miles , 16 km
2019/10/21 20:40 KMHV 212040Z AUTO 04006KT 10SM CLR 25/M02 A3017 RMK A01
 
KFUL - Fullerton, California, USA
Distance from station: SSE 44mi, 70km
Updated: Mon, 21-Oct-2019 1:53pm PDT
Clear
Clear
 Wind from varies
Wind: varies 3 mph , 6 km/h
Temperature: 95°F , 35°C
Dew Point: 30°F , -1°C
Humidity: 10%
Barometer: 29.94 inHg , 1013.9 hPa
Clouds: Clear
Visibility: 10 miles , 16 km
2019/10/21 20:53 KFUL 212053Z VRB03KT 10SM CLR 35/M01 A2994 RMK AO2 SLP138 T03501006 58018
KONT - Ontario, California, USA
Distance from station: SE 45mi, 72km
Updated: Mon, 21-Oct-2019 1:53pm PDT
Few Clouds
Few Clouds
 Wind from W
Wind: W 8 mph , 13 km/h
Temperature: 91°F , 33°C
Dew Point: 30°F , -1°C
Humidity: 11%
Barometer: 29.99 inHg , 1015.6 hPa
Clouds: Few Clouds
Visibility: 10 miles , 16 km
Cloud details: Few Clouds 25000 ft
2019/10/21 20:53 KONT 212053Z 27007KT 10SM FEW250 33/M01 A2999 RMK AO2 SLP137 T03281006 58020
 
KLGB - Long Beach, California, USA
Distance from station: S 46mi, 74km
Updated: Mon, 21-Oct-2019 1:53pm PDT
Clear
Clear
 Wind from NW
Wind: NW 8 mph , 13 km/h
Temperature: 93°F , 34°C
Dew Point: 25°F , -4°C
Humidity: 8%
Barometer: 29.96 inHg , 1014.6 hPa
Clouds: Clear
Visibility: 10 miles , 16 km
2019/10/21 20:53 KLGB 212053Z 31007KT 10SM CLR 34/M04 A2996 RMK AO2 SLP144 T03441039 58017 $
KVCV - Victorville, California, USA
Distance from station: E 46mi, 74km
Updated: Mon, 21-Oct-2019 1:45pm PDT
Clear
Clear
 Wind from WNW
Wind: WNW 5 mph , 7 km/h
Barometer: 30.17 inHg , 1021.7 hPa
Clouds: Clear
Visibility: 10 miles , 16 km
2019/10/21 20:45 KVCV 212045Z 30004KT 10SM SKC A3017
 
KTSP - Tehachapi, California, USA
Distance from station: NNW 48mi, 77km
Updated: Mon, 21-Oct-2019 1:55pm PDT
Clear
Clear
 Wind from E
Wind: E 7 mph , 11 km/h
Temperature: 75°F , 24°C
Dew Point: 28°F , -2°C
Humidity: 18%
Barometer: 30.21 inHg , 1023 hPa
Clouds: Clear
Visibility: 9 miles , 14 km
2019/10/21 20:55 KTSP 212055Z AUTO 10006KT 9SM CLR 24/M02 A3021 RMK AO2